Time;durP1;ratioP1;P1;durP2;ratioP2;P2;SDS_P1;SDS_P2;PMS_P1;PMS_P2;Temp;Humidity;BMP_temperature;BMP_pressure;BME280_temperature;BME280_humidity;BME280_pressure;Samples;Min_cycle;Max_cycle;Signal;HPM_P1;HPM_P2
2022/11/01 00:00:17;;;;;;;18.00;9.80;;;12.80;99.90;;;;;;4976156;28;20179;-68
2022/11/01 00:02:43;;;;;;;11.43;8.20;;;12.90;99.90;;;;;;4976315;28;20199;-68
2022/11/01 00:05:09;;;;;;;10.80;9.00;;;13.00;99.90;;;;;;4976327;28;20263;-68
2022/11/01 00:07:34;;;;;;;15.00;8.70;;;13.00;99.90;;;;;;4976276;28;20638;-68
2022/11/01 00:10:00;;;;;;;12.60;9.17;;;13.00;99.90;;;;;;4975986;28;20180;-68
2022/11/01 00:12:25;;;;;;;10.43;7.97;;;13.00;99.90;;;;;;4976241;28;20203;-68
2022/11/01 00:14:51;;;;;;;9.83;7.83;;;13.10;99.90;;;;;;4976205;28;20199;-68
2022/11/01 00:17:17;;;;;;;9.47;8.03;;;13.20;99.90;;;;;;4976082;28;20181;-68
2022/11/01 00:19:42;;;;;;;9.70;7.97;;;13.10;99.90;;;;;;4975775;28;20588;-68
2022/11/01 00:22:08;;;;;;;10.67;8.80;;;13.20;99.90;;;;;;4976231;28;20192;-68
2022/11/01 00:24:33;;;;;;;13.77;8.40;;;13.20;99.90;;;;;;4976048;28;20172;-68
2022/11/01 00:26:59;;;;;;;9.53;8.63;;;13.20;99.90;;;;;;4975947;28;20661;-68
2022/11/01 00:29:25;;;;;;;9.43;8.07;;;13.30;99.90;;;;;;4975591;28;20180;-68
2022/11/01 00:31:50;;;;;;;14.23;9.30;;;13.40;99.90;;;;;;4975063;28;20396;-68
2022/11/01 00:34:16;;;;;;;13.17;8.83;;;13.40;99.90;;;;;;4975785;28;20210;-68
2022/11/01 00:36:42;;;;;;;10.20;8.87;;;13.50;99.90;;;;;;4975778;28;20177;-68
2022/11/01 00:39:12;;;;;;;12.03;9.97;;;13.50;99.90;;;;;;4975395;28;20290;-68
2022/11/01 00:41:38;;;;;;;9.90;8.90;;;13.50;99.90;;;;;;4975557;28;20196;-68
2022/11/01 00:44:03;;;;;;;12.57;9.87;;;13.50;99.90;;;;;;4975695;28;20415;-68
2022/11/01 00:46:29;;;;;;;14.20;10.80;;;13.50;99.90;;;;;;4975643;28;20243;-68
2022/11/01 00:48:55;;;;;;;14.27;9.97;;;13.40;99.90;;;;;;4975224;28;20176;-68
2022/11/01 00:51:21;;;;;;;12.20;10.17;;;13.50;99.90;;;;;;4975666;28;20530;-68
2022/11/01 00:53:46;;;;;;;14.43;10.77;;;13.40;99.90;;;;;;4975644;28;20713;-68
2022/11/01 00:56:12;;;;;;;11.63;9.40;;;13.40;99.90;;;;;;4975454;28;20183;-68
2022/11/01 00:58:38;;;;;;;10.37;9.33;;;13.40;99.90;;;;;;4975121;28;20627;-68
2022/11/01 01:01:03;;;;;;;10.53;9.23;;;13.30;99.90;;;;;;4975213;28;20517;-68
2022/11/01 01:03:29;;;;;;;13.20;10.63;;;13.30;99.90;;;;;;4975222;28;20192;-67
2022/11/01 01:05:55;;;;;;;21.90;11.63;;;13.20;99.90;;;;;;4975272;28;20172;-68
2022/11/01 01:08:21;;;;;;;15.00;10.77;;;13.20;99.90;;;;;;4974954;28;20183;-68
2022/11/01 01:10:47;;;;;;;14.67;11.27;;;13.20;99.90;;;;;;4975227;28;20173;-68
2022/11/01 01:13:13;;;;;;;12.73;10.30;;;13.20;99.90;;;;;;4975111;28;20975;-68
2022/11/01 01:15:39;;;;;;;12.03;10.83;;;13.20;99.90;;;;;;4975107;28;20424;-68
2022/11/01 01:18:05;;;;;;;12.00;10.47;;;13.20;99.90;;;;;;4974836;28;20211;-68
2022/11/01 01:20:31;;;;;;;15.67;11.97;;;13.20;99.90;;;;;;4974798;28;20296;-68
2022/11/01 01:22:56;;;;;;;11.43;10.23;;;13.10;99.90;;;;;;4974901;28;20534;-68
2022/11/01 01:25:22;;;;;;;11.93;10.30;;;13.10;99.90;;;;;;4974907;28;20633;-68
2022/11/01 01:27:48;;;;;;;12.10;10.40;;;13.10;99.90;;;;;;4974936;28;20669;-67
2022/11/01 01:30:14;;;;;;;13.37;10.80;;;13.10;99.90;;;;;;4974491;28;20424;-68
2022/11/01 01:32:40;;;;;;;11.20;9.57;;;13.00;99.90;;;;;;4974616;28;20223;-68
2022/11/01 01:35:06;;;;;;;15.93;10.73;;;12.90;99.90;;;;;;4974719;28;20424;-67
2022/11/01 01:37:32;;;;;;;14.00;10.50;;;12.90;99.90;;;;;;4974622;28;20459;-68
2022/11/01 01:39:58;;;;;;;12.83;11.53;;;13.00;99.90;;;;;;4974355;28;20466;-68
2022/11/01 01:42:38;;;;;;;22.40;11.83;;;13.00;99.90;;;;;;4974389;28;20216;-68
2022/11/01 01:45:03;;;;;;;14.47;10.43;;;13.00;99.90;;;;;;4974541;28;20256;-68
2022/11/01 01:47:32;;;;;;;11.07;9.97;;;13.10;99.90;;;;;;4974454;28;20851;-68
2022/11/01 01:50:00;;;;;;;11.80;9.30;;;13.10;99.90;;;;;;4974163;28;20207;-68
2022/11/01 01:52:29;;;;;;;14.43;10.43;;;13.20;99.90;;;;;;4974407;28;20451;-68
2022/11/01 01:54:56;;;;;;;12.60;9.90;;;13.20;99.90;;;;;;4974366;28;20427;-68
2022/11/01 01:57:21;;;;;;;13.90;9.40;;;13.20;99.90;;;;;;4974215;28;20435;-68
2022/11/01 01:59:47;;;;;;;13.53;12.20;;;13.20;99.90;;;;;;4973917;28;20956;-68
2022/11/01 02:02:13;;;;;;;13.13;10.73;;;13.20;99.90;;;;;;4974093;28;20218;-68
2022/11/01 02:04:48;;;;;;;15.63;11.40;;;13.20;99.90;;;;;;4974194;28;20231;-68
2022/11/01 02:07:14;;;;;;;12.23;10.67;;;13.20;99.90;;;;;;4974136;28;20442;-68
2022/11/01 02:09:42;;;;;;;10.80;9.63;;;13.30;99.90;;;;;;4973821;28;20424;-68
2022/11/01 02:12:10;;;;;;;12.07;10.10;;;13.20;99.90;;;;;;4988847;28;20534;-68
2022/11/01 02:14:38;;;;;;;10.43;9.23;;;13.30;99.90;;;;;;4974142;28;20526;-68
2022/11/01 02:17:15;;;;;;;12.90;10.20;;;13.20;99.90;;;;;;4974043;28;20977;-68
2022/11/01 02:19:55;;;;;;;15.67;10.00;;;13.30;99.90;;;;;;4973623;28;20937;-68
2022/11/01 02:22:33;;;;;;;11.63;9.17;;;13.30;99.90;;;;;;4973825;28;20510;-68
2022/11/01 02:25:18;;;;;;;14.60;9.60;;;13.30;99.90;;;;;;4973829;28;20796;-68
2022/11/01 02:28:21;;;;;;;11.97;10.23;;;13.30;99.90;;;;;;4973845;28;20882;-68
2022/11/01 02:31:07;;;;;;;12.60;9.77;;;13.30;99.90;;;;;;4973633;28;20469;-68
2022/11/01 02:33:55;;;;;;;12.37;9.90;;;13.20;99.90;;;;;;4973510;28;20431;-67
2022/11/01 02:36:37;;;;;;;12.10;9.00;;;13.20;99.90;;;;;;4973751;28;20419;-67
2022/11/01 02:39:18;;;;;;;10.33;8.83;;;13.30;99.90;;;;;;4973292;28;20498;-68
2022/11/01 02:41:57;;;;;;;12.53;9.23;;;13.30;99.90;;;;;;4973432;28;20466;-68
2022/11/01 02:44:27;;;;;;;8.43;7.73;;;13.30;99.90;;;;;;4973540;28;20537;-68
2022/11/01 02:47:00;;;;;;;11.00;9.10;;;13.20;99.90;;;;;;4973534;28;20411;-68
2022/11/01 02:49:39;;;;;;;12.50;8.90;;;13.30;99.90;;;;;;4973289;28;20514;-68
2022/11/01 02:52:08;;;;;;;12.90;9.10;;;13.30;99.90;;;;;;4973408;28;20443;-68
2022/11/01 02:54:44;;;;;;;11.63;8.67;;;13.40;99.90;;;;;;4973197;28;20419;-68
2022/11/01 02:57:25;;;;;;;11.30;9.00;;;13.50;99.90;;;;;;4973438;28;20424;-68
2022/11/01 02:59:51;;;;;;;12.00;9.03;;;13.50;99.90;;;;;;4972928;28;20423;-68
2022/11/01 03:02:38;;;;;;;10.83;8.17;;;13.40;99.90;;;;;;4973304;28;21007;-68
2022/11/01 03:05:09;;;;;;;11.40;9.27;;;13.40;99.90;;;;;;4973417;28;20566;-68
2022/11/01 03:07:35;;;;;;;13.20;8.17;;;13.40;99.90;;;;;;4973305;28;20412;-69
2022/11/01 03:10:01;;;;;;;13.83;8.10;;;13.60;99.90;;;;;;4973015;28;21007;-68
2022/11/01 03:12:34;;;;;;;10.07;8.27;;;13.50;99.90;;;;;;4973167;28;20229;-68
2022/11/01 03:15:19;;;;;;;10.47;7.20;;;13.50;99.90;;;;;;4973270;28;20443;-68
2022/11/01 03:18:03;;;;;;;13.97;7.87;;;13.60;99.90;;;;;;4973214;28;20491;-68
2022/11/01 03:20:48;;;;;;;9.57;7.50;;;13.70;99.90;;;;;;4973004;28;20427;-68
2022/11/01 03:23:31;;;;;;;18.47;7.57;;;13.60;99.90;;;;;;4973109;28;20442;-68
2022/11/01 03:25:59;;;;;;;7.30;6.60;;;13.70;99.90;;;;;;4973158;28;20419;-68
2022/11/01 03:28:39;;;;;;;7.10;5.50;;;13.90;99.90;;;;;;4972807;28;20856;-68
2022/11/01 03:31:12;;;;;;;13.03;6.70;;;13.90;99.90;;;;;;4972990;28;20971;-68
2022/11/01 03:33:55;;;;;;;6.90;6.17;;;14.10;99.90;;;;;;4973015;28;20478;-68
2022/11/01 03:36:24;;;;;;;8.70;5.57;;;14.10;99.90;;;;;;4973079;28;20490;-68
2022/11/01 03:38:56;;;;;;;8.00;6.10;;;14.30;99.90;;;;;;4972670;28;20455;-68
2022/11/01 03:41:24;;;;;;;13.03;8.40;;;14.20;99.90;;;;;;4972795;28;20459;-68
2022/11/01 03:43:51;;;;;;;8.47;5.80;;;14.20;99.90;;;;;;4972846;28;20422;-68
2022/11/01 03:46:17;;;;;;;12.20;6.20;;;14.20;99.90;;;;;;4972961;28;20941;-68
2022/11/01 03:48:42;;;;;;;9.67;5.80;;;14.20;99.90;;;;;;4972689;28;20502;-68
2022/11/01 03:51:08;;;;;;;8.57;6.27;;;14.30;99.90;;;;;;4972817;28;20658;-68
2022/11/01 03:53:34;;;;;;;6.60;5.00;;;14.30;99.90;;;;;;4972888;28;20219;-68
2022/11/01 03:55:59;;;;;;;10.97;6.30;;;14.30;99.90;;;;;;4972854;28;20172;-68
2022/11/01 03:58:40;;;;;;;12.10;5.83;;;14.30;99.90;;;;;;4972412;28;20308;-68
2022/11/01 04:01:07;;;;;;;9.40;5.40;;;14.40;99.90;;;;;;4972906;28;20183;-68
2022/11/01 04:03:32;;;;;;;4.93;4.07;;;14.60;99.90;;;;;;4972792;28;20489;-69
2022/11/01 04:05:58;;;;;;;9.00;4.80;;;14.70;99.90;;;;;;4974043;28;20518;-68
2022/11/01 04:08:23;;;;;;;5.23;4.40;;;15.00;99.90;;;;;;4976107;28;20188;-68
2022/11/01 04:10:49;;;;;;;7.80;4.70;;;15.10;99.90;;;;;;4976262;28;20176;-68
2022/11/01 04:13:14;;;;;;;7.40;4.17;;;15.30;99.90;;;;;;4976105;28;20196;-67
2022/11/01 04:21:20;;;;;;;8.37;5.17;;;15.50;99.90;;;;;;4976051;28;20447;-68
2022/11/01 04:23:47;;;;;;;8.77;4.70;;;15.50;99.90;;;;;;4976192;28;20420;-67
2022/11/01 04:26:14;;;;;;;7.30;4.87;;;15.50;99.90;;;;;;4976005;28;20921;-68
2022/11/01 04:28:40;;;;;;;8.07;5.10;;;15.50;99.90;;;;;;4975670;28;20433;-67
2022/11/01 04:31:06;;;;;;;6.70;4.67;;;15.40;99.90;;;;;;4975870;28;20423;-67
2022/11/01 04:33:32;;;;;;;6.20;4.70;;;15.50;99.90;;;;;;4975989;28;20424;-67
2022/11/01 04:35:58;;;;;;;6.37;4.87;;;15.40;99.90;;;;;;4975800;28;20556;-67
2022/11/01 04:38:23;;;;;;;5.30;4.70;;;15.40;99.90;;;;;;4975430;28;20200;-67
2022/11/01 04:40:49;;;;;;;5.93;4.67;;;15.40;99.90;;;;;;4974504;28;20262;-67
2022/11/01 04:43:14;;;;;;;9.27;4.67;;;15.40;99.90;;;;;;4975507;28;20208;-67
2022/11/01 04:45:40;;;;;;;10.43;4.93;;;15.30;99.90;;;;;;4975705;28;20251;-68
2022/11/01 04:48:14;;;;;;;5.73;4.03;;;15.40;99.90;;;;;;4975581;28;20169;-67
2022/11/01 04:50:40;;;;;;;8.33;5.03;;;15.30;99.90;;;;;;4975622;28;20523;-67
2022/11/01 04:53:06;;;;;;;7.33;4.70;;;15.30;99.90;;;;;;4975459;28;21041;-67
2022/11/01 04:55:32;;;;;;;5.60;3.83;;;15.30;99.90;;;;;;4975737;28;20506;-68
2022/11/01 04:57:57;;;;;;;5.93;3.87;;;15.20;99.90;;;;;;4975344;28;20210;-67
2022/11/01 05:00:24;;;;;;;5.13;3.90;;;15.30;99.90;;;;;;4975157;28;20169;-68
2022/11/01 05:02:49;;;;;;;3.30;3.00;;;15.30;99.90;;;;;;4975582;28;20669;-67
2022/11/01 05:05:16;;;;;;;7.70;4.10;;;15.30;99.90;;;;;;4975288;28;20431;-67
2022/11/01 05:07:41;;;;;;;4.90;3.70;;;15.40;99.90;;;;;;4975321;28;20176;-67
2022/11/01 05:10:07;;;;;;;7.00;3.90;;;15.40;99.90;;;;;;4975099;28;20431;-67
2022/11/01 05:12:33;;;;;;;6.07;3.43;;;15.40;99.90;;;;;;4975067;28;20228;-68
2022/11/01 05:14:59;;;;;;;5.70;3.50;;;15.40;99.90;;;;;;4975163;28;20531;-68
2022/11/01 05:17:24;;;;;;;6.87;3.50;;;15.40;99.90;;;;;;4974644;28;20450;-67
2022/11/01 05:19:50;;;;;;;6.60;4.10;;;15.40;99.90;;;;;;4974746;28;20184;-67
2022/11/01 05:22:16;;;;;;;6.23;3.67;;;15.40;99.90;;;;;;4974990;28;20563;-67
2022/11/01 05:24:42;;;;;;;4.13;3.23;;;15.40;99.90;;;;;;4974964;28;20232;-67
2022/11/01 05:27:07;;;;;;;5.00;3.50;;;15.40;99.90;;;;;;4974868;28;20932;-67
2022/11/01 05:29:33;;;;;;;3.37;2.87;;;15.50;99.90;;;;;;4974573;28;20554;-67
2022/11/01 05:31:58;;;;;;;8.90;3.20;;;15.50;99.90;;;;;;4974762;28;20685;-67
2022/11/01 05:34:24;;;;;;;5.00;3.57;;;15.50;99.90;;;;;;4974765;28;20169;-67
2022/11/01 05:36:49;;;;;;;3.27;2.97;;;15.50;99.90;;;;;;4974762;28;20683;-67
2022/11/01 05:39:15;;;;;;;4.10;2.53;;;15.40;99.90;;;;;;4974436;28;20756;-68
2022/11/01 05:41:40;;;;;;;5.37;2.80;;;15.30;99.90;;;;;;4974899;28;20230;-67
2022/11/01 05:44:06;;;;;;;4.37;3.37;;;15.20;99.90;;;;;;4974629;28;20168;-68
2022/11/01 05:46:32;;;;;;;6.73;4.27;;;15.00;99.90;;;;;;4974576;28;20533;-67
2022/11/01 05:48:57;;;;;;;3.57;2.77;;;14.90;99.90;;;;;;4974164;28;20179;-67
2022/11/01 05:51:23;;;;;;;3.43;3.00;;;14.80;99.90;;;;;;4974431;28;20700;-67
2022/11/01 05:53:49;;;;;;;3.20;2.90;;;14.70;99.90;;;;;;4974574;28;20200;-67
2022/11/01 05:56:16;;;;;;;4.17;3.07;;;14.70;99.90;;;;;;4974341;28;20183;-67
2022/11/01 05:58:42;;;;;;;3.50;2.60;;;14.50;99.90;;;;;;4973946;28;20491;-67
2022/11/01 06:01:08;;;;;;;4.67;3.40;;;14.40;99.90;;;;;;4974152;28;20443;-67
2022/11/01 06:03:34;;;;;;;3.93;2.60;;;14.40;99.90;;;;;;4974192;28;20420;-67
2022/11/01 06:06:00;;;;;;;4.80;2.80;;;14.20;99.90;;;;;;4974151;28;20490;-67
2022/11/01 06:08:26;;;;;;;4.03;1.97;;;14.20;99.90;;;;;;4973925;28;20510;-67
2022/11/01 06:10:52;;;;;;;3.33;3.00;;;14.20;99.90;;;;;;4974094;28;20175;-67
2022/11/01 06:13:18;;;;;;;2.20;1.70;;;14.40;99.90;;;;;;4974057;28;20207;-67
2022/11/01 06:15:43;;;;;;;2.90;1.97;;;14.20;99.90;;;;;;4974018;28;20784;-67
2022/11/01 06:18:09;;;;;;;5.50;2.30;;;14.20;99.90;;;;;;4973812;28;20196;-67
2022/11/01 06:20:35;;;;;;;14.27;2.97;;;14.20;99.90;;;;;;4973911;28;20175;-67
2022/11/01 06:23:08;;;;;;;2.67;2.00;;;14.20;99.90;;;;;;4973856;28;20482;-66
2022/11/01 06:25:35;;;;;;;3.83;1.73;;;14.20;99.90;;;;;;4973894;28;21016;-67
2022/11/01 06:28:00;;;;;;;2.33;2.10;;;14.10;99.90;;;;;;4973262;28;20547;-67
2022/11/01 06:30:26;;;;;;;2.03;1.83;;;14.10;99.90;;;;;;4973427;28;20515;-66
2022/11/01 06:32:51;;;;;;;1.80;1.70;;;14.10;99.90;;;;;;4973761;28;20199;-66
2022/11/01 06:35:17;;;;;;;2.03;1.93;;;14.10;99.90;;;;;;4973694;28;20183;-67
2022/11/01 06:37:43;;;;;;;1.90;1.50;;;14.10;99.90;;;;;;4973649;28;20583;-67
2022/11/01 06:40:09;;;;;;;4.23;2.03;;;14.20;99.90;;;;;;4973382;28;20248;-67
2022/11/01 06:42:35;;;;;;;4.60;2.70;;;14.20;99.90;;;;;;4973468;28;20824;-66
2022/11/01 06:45:01;;;;;;;2.10;1.90;;;14.20;99.90;;;;;;4973626;28;20510;-66
2022/11/01 06:47:26;;;;;;;2.60;1.97;;;14.20;99.90;;;;;;4973740;28;20188;-66
2022/11/01 06:49:52;;;;;;;2.60;1.83;;;14.20;99.90;;;;;;4973299;28;20164;-66
2022/11/01 06:52:17;;;;;;;1.53;1.43;;;14.20;99.90;;;;;;4973430;28;20198;-66
2022/11/01 06:54:43;;;;;;;2.50;1.97;;;14.20;99.90;;;;;;4973546;28;20176;-67
2022/11/01 06:57:08;;;;;;;2.87;2.60;;;14.20;99.90;;;;;;4973778;28;20548;-67
2022/11/01 06:59:34;;;;;;;2.00;1.90;;;14.10;99.90;;;;;;4973289;28;20480;-66
2022/11/01 07:01:59;;;;;;;3.50;2.37;;;14.20;99.90;;;;;;4973522;28;20193;-66
2022/11/01 07:04:27;;;;;;;1.87;1.60;;;14.20;99.90;;;;;;4973372;28;20187;-66
2022/11/01 07:06:53;;;;;;;6.87;3.67;;;14.20;99.90;;;;;;4973624;28;20493;-66
2022/11/01 07:09:18;;;;;;;2.00;1.80;;;14.20;99.90;;;;;;4973084;28;20502;-66
2022/11/01 07:11:44;;;;;;;2.50;1.77;;;14.20;99.90;;;;;;4973226;28;20242;-66
2022/11/01 07:14:09;;;;;;;2.70;1.60;;;14.20;99.90;;;;;;4973352;28;20172;-66
2022/11/01 07:16:35;;;;;;;9.83;5.83;;;14.30;99.90;;;;;;4973318;28;20581;-67
2022/11/01 07:19:01;;;;;;;2.93;2.27;;;14.30;99.90;;;;;;4972930;28;20207;-67
2022/11/01 07:21:27;;;;;;;2.43;2.00;;;14.30;99.90;;;;;;4973097;28;20195;-66
2022/11/01 07:23:53;;;;;;;2.07;1.90;;;14.30;99.90;;;;;;4973073;28;20175;-66
2022/11/01 07:26:19;;;;;;;1.70;1.50;;;14.30;99.90;;;;;;4973211;28;20420;-66
2022/11/01 07:28:44;;;;;;;1.70;1.60;;;14.40;99.90;;;;;;4972934;28;20176;-66
2022/11/01 07:31:10;;;;;;;8.27;7.50;;;14.40;99.90;;;;;;4972899;28;20956;-67
2022/11/01 07:33:35;;;;;;;5.00;1.63;;;14.40;99.90;;;;;;4973096;28;20631;-67
2022/11/01 07:36:02;;;;;;;1.90;1.80;;;14.40;99.90;;;;;;4972960;28;20776;-66
2022/11/01 07:38:27;;;;;;;1.67;1.57;;;14.50;99.90;;;;;;4972547;28;20204;-66
2022/11/01 07:40:53;;;;;;;2.43;2.23;;;14.60;99.90;;;;;;4975787;28;20419;-66
2022/11/01 07:43:19;;;;;;;3.17;1.30;;;14.60;99.90;;;;;;4976692;28;20246;-67
2022/11/01 07:45:45;;;;;;;1.20;1.07;;;14.70;99.90;;;;;;4976754;28;20172;-66
2022/11/01 07:48:14;;;;;;;1.60;1.40;;;14.80;99.90;;;;;;4976450;28;20427;-66
2022/11/01 07:50:41;;;;;;;2.70;1.57;;;15.00;99.90;;;;;;4976609;28;20426;-66
2022/11/01 07:53:09;;;;;;;1.53;1.40;;;15.10;99.90;;;;;;4976630;28;20447;-66
2022/11/01 07:55:35;;;;;;;1.40;1.30;;;15.20;99.90;;;;;;4976498;28;20435;-67
2022/11/01 07:58:02;;;;;;;1.30;1.20;;;15.20;99.90;;;;;;4976496;28;20459;-66
2022/11/01 08:00:28;;;;;;;1.47;1.33;;;15.40;99.90;;;;;;4976243;28;20499;-66
2022/11/01 08:03:00;;;;;;;2.20;1.50;;;15.40;99.90;;;;;;4976426;28;20526;-66
2022/11/01 08:05:25;;;;;;;1.80;1.30;;;15.40;99.90;;;;;;4976456;28;20525;-66
2022/11/01 08:07:51;;;;;;;1.33;1.23;;;15.50;99.90;;;;;;4976353;28;20482;-66
2022/11/01 08:10:16;;;;;;;1.50;1.40;;;15.60;99.90;;;;;;4976154;28;20268;-67
2022/11/01 08:12:42;;;;;;;1.67;1.53;;;15.60;99.90;;;;;;4976151;28;20196;-66
2022/11/01 08:15:08;;;;;;;1.20;1.10;;;15.80;99.90;;;;;;4976258;28;20654;-66
2022/11/01 08:17:34;;;;;;;3.67;3.40;;;15.80;99.90;;;;;;4976337;28;20724;-66
2022/11/01 08:20:00;;;;;;;1.50;1.40;;;15.90;99.90;;;;;;4975904;28;20426;-66
2022/11/01 08:22:26;;;;;;;3.20;2.13;;;16.00;99.90;;;;;;4975930;28;20817;-67
2022/11/01 08:24:52;;;;;;;2.33;2.13;;;16.00;99.90;;;;;;4975953;28;20172;-67
2022/11/01 08:27:17;;;;;;;1.57;1.47;;;16.10;99.90;;;;;;4976075;28;20259;-66
2022/11/01 08:29:43;;;;;;;2.40;1.90;;;16.20;99.90;;;;;;4975904;28;20185;-66
2022/11/01 08:32:08;;;;;;;1.40;1.30;;;16.20;99.90;;;;;;4976143;28;20565;-66
2022/11/01 08:34:34;;;;;;;1.67;1.57;;;16.20;99.90;;;;;;4975945;28;20761;-66
2022/11/01 08:36:59;;;;;;;1.50;1.40;;;16.30;99.90;;;;;;4975931;28;20187;-66
2022/11/01 08:39:25;;;;;;;5.87;1.70;;;16.50;99.90;;;;;;4975583;28;20286;-67
2022/11/01 08:41:51;;;;;;;1.60;1.50;;;16.40;99.90;;;;;;4975652;28;20312;-67
2022/11/01 08:44:18;;;;;;;6.93;4.90;;;16.60;99.90;;;;;;4975747;28;20693;-66
2022/11/01 08:46:44;;;;;;;3.53;3.20;;;16.60;99.90;;;;;;4975716;28;20196;-67
2022/11/01 08:49:11;;;;;;;1.30;1.20;;;16.70;99.90;;;;;;4975239;28;20567;-67
2022/11/01 08:51:37;;;;;;;1.53;1.43;;;16.70;99.90;;;;;;4974785;28;20435;-67
2022/11/01 08:54:04;;;;;;;1.43;1.33;;;16.70;99.90;;;;;;4975466;28;20426;-67
2022/11/01 08:56:29;;;;;;;1.33;1.23;;;16.90;99.90;;;;;;4990322;28;20424;-67
2022/11/01 08:58:56;;;;;;;1.33;1.20;;;17.00;99.90;;;;;;4975029;28;20470;-67
2022/11/01 09:01:23;;;;;;;1.70;1.60;;;17.10;99.90;;;;;;4975241;28;20193;-67
2022/11/01 09:03:49;;;;;;;1.57;1.47;;;17.10;99.90;;;;;;4975271;28;20496;-67
2022/11/01 09:06:14;;;;;;;1.00;0.90;;;17.10;99.90;;;;;;4975189;28;20506;-67
2022/11/01 09:08:40;;;;;;;2.17;1.37;;;17.00;99.90;;;;;;4974919;28;20183;-67
2022/11/01 09:11:06;;;;;;;2.07;1.27;;;16.90;99.90;;;;;;4975040;28;20182;-67
2022/11/01 09:13:33;;;;;;;1.50;1.40;;;16.80;99.90;;;;;;4975117;28;20173;-67
2022/11/01 09:16:03;;;;;;;1.63;1.30;;;16.70;99.90;;;;;;4975055;28;20180;-67
2022/11/01 09:18:28;;;;;;;1.80;1.20;;;16.60;99.90;;;;;;4974648;28;20460;-66
2022/11/01 09:20:55;;;;;;;1.60;1.47;;;16.60;99.90;;;;;;4974915;28;20419;-66
2022/11/01 09:23:20;;;;;;;1.83;1.73;;;16.60;99.90;;;;;;4974863;28;20188;-66
2022/11/01 09:25:46;;;;;;;4.80;3.63;;;16.70;99.90;;;;;;4974855;28;20782;-66
2022/11/01 09:28:12;;;;;;;4.93;4.13;;;16.80;99.90;;;;;;4974514;28;20235;-66
2022/11/01 09:30:38;;;;;;;2.20;2.00;;;17.00;99.90;;;;;;4974695;28;20169;-66
2022/11/01 09:33:05;;;;;;;3.63;1.50;;;17.20;99.90;;;;;;4973275;28;20435;-66
2022/11/01 09:35:31;;;;;;;1.83;1.40;;;17.50;99.90;;;;;;4974360;28;20494;-66
2022/11/01 09:37:58;;;;;;;1.37;1.27;;;17.70;99.90;;;;;;4974318;28;20946;-69
2022/11/01 09:40:25;;;;;;;1.47;1.17;;;18.10;99.90;;;;;;4974358;28;20420;-66
2022/11/01 09:42:52;;;;;;;0.90;0.90;;;18.90;99.90;;;;;;4974463;28;20945;-69
2022/11/01 09:45:24;;;;;;;1.43;1.30;;;19.70;99.90;;;;;;4974488;28;20503;-66
2022/11/01 09:47:55;;;;;;;2.37;1.50;;;20.10;99.90;;;;;;4974538;28;20424;-67
2022/11/01 09:50:36;;;;;;;1.43;1.33;;;22.20;99.90;;;;;;4974207;28;20515;-67
2022/11/01 09:53:07;;;;;;;1.17;1.07;;;24.80;99.90;;;;;;4974293;28;20438;-67
2022/11/01 09:55:53;;;;;;;1.40;1.10;;;26.80;99.90;;;;;;4974356;28;20921;-67
2022/11/01 09:58:44;;;;;;;1.20;1.10;;;27.50;95.80;;;;;;4974027;28;20454;-67
2022/11/01 10:01:23;;;;;;;2.10;1.83;;;25.80;97.80;;;;;;4974122;28;20908;-67
2022/11/01 10:04:11;;;;;;;1.57;1.47;;;25.20;99.70;;;;;;4973324;28;20470;-67
2022/11/01 10:06:50;;;;;;;1.00;0.83;;;24.70;99.90;;;;;;4974247;28;20440;-67
2022/11/01 10:09:45;;;;;;;1.13;1.00;;;25.60;98.60;;;;;;4973857;28;20439;-67
2022/11/01 10:12:34;;;;;;;1.77;1.23;;;25.20;96.30;;;;;;4973996;28;20555;-67
2022/11/01 10:15:32;;;;;;;1.40;1.30;;;24.60;98.30;;;;;;4974163;28;20433;-67
2022/11/01 10:18:08;;;;;;;1.17;1.10;;;23.40;99.90;;;;;;4974273;28;20554;-67
2022/11/01 10:20:38;;;;;;;1.60;1.43;;;22.60;99.90;;;;;;4973694;28;20411;-69
2022/11/01 10:23:04;;;;;;;1.17;1.07;;;22.20;99.90;;;;;;4974000;28;20436;-67
2022/11/01 10:25:34;;;;;;;2.30;1.60;;;21.60;99.90;;;;;;4973815;28;20419;-66
2022/11/01 10:28:06;;;;;;;1.43;1.33;;;21.50;99.90;;;;;;4973857;28;20433;-67
2022/11/01 10:30:45;;;;;;;2.23;1.30;;;21.50;99.90;;;;;;4973617;28;20423;-67
2022/11/01 10:33:39;;;;;;;1.40;1.30;;;22.00;99.90;;;;;;4973833;28;21040;-67
2022/11/01 10:36:35;;;;;;;1.53;1.43;;;21.90;99.90;;;;;;4973664;28;20423;-67
2022/11/01 10:39:17;;;;;;;2.10;1.80;;;21.80;99.90;;;;;;4972135;28;20890;-67
2022/11/01 10:41:51;;;;;;;1.23;1.10;;;22.00;99.90;;;;;;4973494;28;20459;-67
2022/11/01 10:44:37;;;;;;;1.90;1.20;;;21.80;99.90;;;;;;4973711;28;20443;-67
2022/11/01 10:47:07;;;;;;;1.67;1.40;;;21.50;99.90;;;;;;4973704;28;20450;-67
2022/11/01 10:49:39;;;;;;;1.40;1.30;;;21.40;99.90;;;;;;4973182;28;20423;-67
2022/11/01 10:52:08;;;;;;;3.03;1.27;;;21.30;99.90;;;;;;4973375;28;20813;-66
2022/11/01 10:54:36;;;;;;;2.23;1.73;;;20.90;99.90;;;;;;4973591;28;20453;-66
2022/11/01 10:57:12;;;;;;;1.30;1.20;;;20.90;99.90;;;;;;4973427;28;20427;-66
2022/11/01 10:59:45;;;;;;;1.97;1.77;;;20.80;99.90;;;;;;4973127;28;20550;-67
2022/11/01 11:02:39;;;;;;;1.80;1.53;;;20.80;99.90;;;;;;4973677;28;20944;-67
2022/11/01 11:05:05;;;;;;;2.93;1.13;;;20.80;99.90;;;;;;4972378;28;20450;-67
2022/11/01 11:07:31;;;;;;;2.53;1.63;;;20.70;99.90;;;;;;4973245;28;20427;-66
2022/11/01 11:09:58;;;;;;;4.00;1.70;;;20.30;99.90;;;;;;4973072;28;20426;-67
2022/11/01 11:12:26;;;;;;;2.70;1.60;;;20.40;99.90;;;;;;4973201;28;20511;-67
2022/11/01 11:14:56;;;;;;;2.47;1.73;;;20.40;99.90;;;;;;4974587;28;20431;-67
2022/11/01 11:17:27;;;;;;;1.97;1.80;;;20.30;99.90;;;;;;4977321;28;21024;-67
2022/11/01 11:19:54;;;;;;;2.00;1.30;;;20.00;99.90;;;;;;4976936;28;20841;-66
2022/11/01 11:22:21;;;;;;;2.47;1.77;;;20.20;99.90;;;;;;4977070;28;20861;-67
2022/11/01 11:24:48;;;;;;;1.60;1.50;;;20.40;99.90;;;;;;4977254;28;20418;-67
2022/11/01 11:27:22;;;;;;;1.20;1.10;;;20.70;99.90;;;;;;4977223;28;20455;-69
2022/11/01 11:29:53;;;;;;;2.07;1.60;;;21.50;99.90;;;;;;4976891;28;20480;-67
2022/11/01 11:32:34;;;;;;;1.90;1.70;;;21.80;99.90;;;;;;4976901;28;20451;-66
2022/11/01 11:35:20;;;;;;;1.70;1.50;;;21.80;99.90;;;;;;4977069;28;20495;-67
2022/11/01 11:38:13;;;;;;;2.10;1.33;;;22.10;99.90;;;;;;4976848;28;20430;-67
2022/11/01 11:40:39;;;;;;;2.60;1.17;;;22.10;99.90;;;;;;4991877;28;20547;-67
2022/11/01 11:43:29;;;;;;;1.60;1.20;;;21.70;99.90;;;;;;4976951;28;20805;-67
2022/11/01 11:46:09;;;;;;;2.37;1.60;;;21.10;99.90;;;;;;4976787;28;20794;-69
2022/11/01 11:48:57;;;;;;;3.37;1.90;;;20.60;99.90;;;;;;4975054;28;20427;-68
2022/11/01 11:51:25;;;;;;;2.03;1.30;;;20.30;99.90;;;;;;4976591;28;20435;-69
2022/11/01 11:54:15;;;;;;;3.97;1.70;;;20.20;99.90;;;;;;4976524;28;20455;-69
2022/11/01 11:56:41;;;;;;;1.67;1.57;;;19.90;99.90;;;;;;4976560;28;20506;-69
2022/11/01 11:59:24;;;;;;;1.40;1.30;;;19.70;99.90;;;;;;4976146;28;20558;-69
2022/11/01 12:02:00;;;;;;;2.60;1.60;;;19.50;99.90;;;;;;4976435;28;20733;-66
2022/11/01 12:04:44;;;;;;;3.17;1.90;;;19.30;99.90;;;;;;4976369;28;20470;-69
2022/11/01 12:07:29;;;;;;;2.40;1.50;;;19.20;99.90;;;;;;4976421;28;20887;-67
2022/11/01 12:10:00;;;;;;;2.87;2.00;;;19.00;99.90;;;;;;4975895;28;20431;-67
2022/11/01 12:12:32;;;;;;;1.77;1.67;;;18.90;99.90;;;;;;4976232;28;20858;-69
2022/11/01 12:14:59;;;;;;;2.50;1.57;;;18.80;99.90;;;;;;4976155;28;20909;-69
2022/11/01 12:17:32;;;;;;;2.30;1.57;;;18.80;99.90;;;;;;4976066;28;20423;-69
2022/11/01 12:20:14;;;;;;;4.80;4.30;;;18.90;99.90;;;;;;4974492;28;20558;-69
2022/11/01 12:22:48;;;;;;;3.47;3.03;;;18.90;99.90;;;;;;4975935;28;20443;-69
2022/11/01 12:25:18;;;;;;;2.00;1.80;;;18.80;99.90;;;;;;4976003;28;20434;-69
2022/11/01 12:28:02;;;;;;;5.00;1.87;;;18.60;99.90;;;;;;4974895;28;20415;-69
2022/11/01 12:30:32;;;;;;;1.50;1.40;;;18.60;99.90;;;;;;4975669;28;20412;-68
2022/11/01 12:33:01;;;;;;;1.73;1.40;;;18.60;99.90;;;;;;4990654;28;21015;-69
2022/11/01 12:35:33;;;;;;;2.07;1.67;;;18.60;99.90;;;;;;4975811;28;20764;-69
2022/11/01 12:38:03;;;;;;;1.57;1.47;;;19.90;99.90;;;;;;4975711;28;20471;-69
2022/11/01 12:40:33;;;;;;;1.53;1.43;;;23.00;99.90;;;;;;4975543;28;20510;-66
2022/11/01 12:43:08;;;;;;;1.73;1.30;;;25.20;99.80;;;;;;4975466;28;20467;-66
2022/11/01 12:45:55;;;;;;;2.00;1.80;;;26.00;95.40;;;;;;4975603;28;20474;-66
2022/11/01 12:48:33;;;;;;;12.97;11.67;;;25.00;96.60;;;;;;4975397;28;20412;-66
2022/11/01 12:51:08;;;;;;;3.70;2.83;;;23.80;98.20;;;;;;4975526;28;20502;-66
2022/11/01 12:53:48;;;;;;;2.07;1.97;;;22.80;99.90;;;;;;4975488;28;20506;-66
2022/11/01 12:56:13;;;;;;;2.33;2.03;;;22.60;99.90;;;;;;4975509;28;20901;-66
2022/11/01 12:58:39;;;;;;;2.90;1.90;;;24.00;99.50;;;;;;4975137;28;20463;-66
2022/11/01 13:01:09;;;;;;;3.37;3.00;;;24.20;98.00;;;;;;4975420;28;20263;-66